Time;durP1;ratioP1;P1;durP2;ratioP2;P2;SDS_P1;SDS_P2;PMS_P1;PMS_P2;Temp;Humidity;BMP_temperature;BMP_pressure;BME280_temperature;BME280_humidity;BME280_pressure;Samples;Min_cycle;Max_cycle;Signal;HPM_P1;HPM_P2
2021/11/27 00:01:43;;;;;;;4.07;1.03;;;5.10;99.90;;;;;;5031733;28;37450;-78
2021/11/27 00:04:09;;;;;;;6.47;0.87;;;5.20;99.90;;;;;;5037132;28;36957;-78
2021/11/27 00:06:36;;;;;;;6.20;0.77;;;5.20;99.90;;;;;;5029148;28;37551;-78
2021/11/27 00:09:03;;;;;;;4.30;0.90;;;5.20;99.90;;;;;;5055775;28;38005;-77
2021/11/27 00:11:30;;;;;;;4.07;0.90;;;5.20;99.90;;;;;;5033478;28;38219;-78
2021/11/27 00:13:56;;;;;;;4.20;1.30;;;5.20;99.90;;;;;;5051487;28;37166;-78
2021/11/27 00:16:22;;;;;;;5.33;0.80;;;5.20;99.90;;;;;;5028422;28;38750;-78
2021/11/27 00:18:49;;;;;;;3.60;1.03;;;5.20;99.90;;;;;;5031457;28;37751;-79
2021/11/27 00:21:20;;;;;;;5.43;1.10;;;5.20;99.90;;;;;;5026573;28;35959;-79
2021/11/27 00:23:49;;;;;;;3.50;0.57;;;5.20;99.90;;;;;;5040922;28;38071;-79
2021/11/27 00:26:16;;;;;;;5.03;0.80;;;5.10;99.90;;;;;;5036544;28;40245;-78
2021/11/27 00:28:43;;;;;;;5.23;0.90;;;5.10;99.90;;;;;;5035530;28;38250;-78
2021/11/27 00:31:14;;;;;;;6.33;1.13;;;5.10;99.90;;;;;;5051385;28;39544;-78
2021/11/27 00:33:41;;;;;;;4.77;1.03;;;5.10;99.90;;;;;;5035993;28;37838;-78
2021/11/27 00:36:07;;;;;;;4.17;1.10;;;5.10;99.90;;;;;;5049788;28;38726;-78
2021/11/27 00:38:34;;;;;;;4.17;1.13;;;5.20;99.90;;;;;;5053031;28;38782;-78
2021/11/27 00:41:00;;;;;;;5.00;1.23;;;5.20;99.90;;;;;;5049309;28;38948;-78
2021/11/27 00:43:26;;;;;;;3.90;0.90;;;5.20;99.90;;;;;;5039672;28;48152;-79
2021/11/27 00:45:53;;;;;;;6.77;1.27;;;5.10;99.90;;;;;;5032344;28;39821;-78
2021/11/27 00:48:21;;;;;;;2.57;0.90;;;5.10;99.90;;;;;;5007392;28;39352;-79
2021/11/27 00:50:51;;;;;;;4.10;1.40;;;5.20;99.90;;;;;;5027144;28;38341;-78
2021/11/27 00:53:18;;;;;;;5.43;1.13;;;5.20;99.90;;;;;;5029777;28;37145;-78
2021/11/27 00:55:44;;;;;;;6.63;1.70;;;5.20;99.90;;;;;;5033629;28;38605;-78
2021/11/27 00:58:12;;;;;;;5.47;0.83;;;5.20;99.90;;;;;;5026206;28;39220;-78
2021/11/27 01:00:42;;;;;;;3.20;0.77;;;5.20;99.90;;;;;;5027967;28;38843;-78
2021/11/27 01:03:10;;;;;;;4.93;1.10;;;5.20;99.90;;;;;;5051214;27;37688;-78
2021/11/27 01:05:38;;;;;;;2.57;0.77;;;5.10;99.90;;;;;;5040604;28;39160;-78
2021/11/27 01:08:05;;;;;;;3.33;0.93;;;5.10;99.90;;;;;;5054103;27;38706;-78
2021/11/27 01:11:00;;;;;;;4.90;1.10;;;5.10;99.90;;;;;;5051966;28;38699;-78
2021/11/27 01:13:27;;;;;;;4.07;0.90;;;5.10;99.90;;;;;;5026553;28;47458;-79
2021/11/27 01:15:54;;;;;;;2.53;1.00;;;5.10;99.90;;;;;;5013317;28;39369;-79
2021/11/27 01:18:21;;;;;;;3.30;1.10;;;5.10;99.90;;;;;;5013844;28;40099;-78
2021/11/27 01:20:56;;;;;;;5.57;1.20;;;5.10;99.90;;;;;;5034996;28;38460;-78
2021/11/27 01:23:23;;;;;;;3.13;1.17;;;5.10;99.90;;;;;;5025437;28;37860;-78
2021/11/27 01:25:51;;;;;;;6.67;1.40;;;5.10;99.90;;;;;;5033024;28;38945;-78
2021/11/27 01:28:18;;;;;;;10.77;1.50;;;5.20;99.90;;;;;;5020017;28;38437;-78
2021/11/27 01:30:47;;;;;;;4.67;2.10;;;5.20;99.90;;;;;;5030595;28;37607;-78
2021/11/27 01:33:13;;;;;;;7.97;2.37;;;5.20;99.90;;;;;;5034286;27;39212;-78
2021/11/27 01:35:40;;;;;;;4.27;2.20;;;5.20;99.90;;;;;;5047660;28;39989;-78
2021/11/27 01:38:06;;;;;;;7.40;2.67;;;5.20;99.90;;;;;;5032049;28;40030;-78
2021/11/27 01:40:33;;;;;;;6.77;2.80;;;5.20;99.90;;;;;;5026638;28;36146;-78
2021/11/27 01:43:00;;;;;;;6.47;2.80;;;5.20;99.90;;;;;;5047390;28;37124;-79
2021/11/27 01:45:27;;;;;;;5.80;2.93;;;5.20;99.90;;;;;;5045021;27;40095;-78
2021/11/27 01:48:01;;;;;;;6.07;2.53;;;5.20;99.90;;;;;;5048028;28;39489;-79
2021/11/27 01:50:31;;;;;;;8.00;2.90;;;5.20;99.90;;;;;;5023633;28;47072;-78
2021/11/27 01:52:57;;;;;;;8.17;3.53;;;5.20;99.90;;;;;;5036003;28;37498;-79
2021/11/27 01:55:24;;;;;;;9.07;3.13;;;5.20;99.90;;;;;;5021950;28;39878;-78
2021/11/27 01:57:51;;;;;;;5.57;2.97;;;5.10;99.90;;;;;;5028699;28;39263;-78
2021/11/27 02:00:21;;;;;;;4.97;2.90;;;5.10;99.90;;;;;;5029550;28;40136;-78
2021/11/27 02:02:50;;;;;;;5.87;3.00;;;5.10;99.90;;;;;;5029808;28;37665;-78
2021/11/27 02:05:16;;;;;;;8.00;3.00;;;5.10;99.90;;;;;;5022908;27;40210;-78
2021/11/27 02:07:42;;;;;;;9.10;4.10;;;5.00;99.90;;;;;;5029217;28;39591;-78
2021/11/27 02:10:12;;;;;;;5.80;4.90;;;5.00;99.90;;;;;;5033588;28;40418;-78
2021/11/27 02:12:40;;;;;;;6.87;5.23;;;5.00;99.90;;;;;;5022421;28;37481;-78
2021/11/27 02:15:08;;;;;;;8.67;4.30;;;4.90;99.90;;;;;;5024358;27;38657;-78
2021/11/27 02:17:34;;;;;;;4.13;3.83;;;4.90;99.90;;;;;;5030161;28;38939;-78
2021/11/27 02:20:00;;;;;;;12.60;5.97;;;4.90;99.90;;;;;;5026304;28;37315;-78
2021/11/27 02:22:27;;;;;;;5.53;5.03;;;5.00;99.90;;;;;;5017381;28;36682;-78
2021/11/27 02:24:53;;;;;;;11.83;7.03;;;5.00;99.90;;;;;;5028505;28;39828;-78
2021/11/27 02:27:19;;;;;;;10.43;5.30;;;5.10;99.90;;;;;;5026428;28;39525;-79
2021/11/27 02:29:46;;;;;;;8.13;6.20;;;5.10;99.90;;;;;;5022057;28;40171;-78
2021/11/27 02:32:12;;;;;;;6.10;4.83;;;5.20;99.90;;;;;;5028925;28;37883;-78
2021/11/27 02:34:39;;;;;;;6.20;3.20;;;5.20;99.90;;;;;;5035703;28;39209;-78
2021/11/27 02:37:06;;;;;;;4.67;3.90;;;5.20;99.90;;;;;;5048830;28;38664;-78
2021/11/27 02:39:34;;;;;;;5.30;3.80;;;5.10;99.90;;;;;;5030929;28;38029;-78
2021/11/27 02:42:00;;;;;;;6.73;4.73;;;5.10;99.90;;;;;;5050560;27;36818;-78
2021/11/27 02:44:30;;;;;;;6.90;5.53;;;5.00;99.90;;;;;;5050576;27;38881;-79
2021/11/27 02:46:58;;;;;;;7.23;4.87;;;5.00;99.90;;;;;;5029962;28;39895;-78
2021/11/27 02:49:24;;;;;;;8.57;5.10;;;4.90;99.90;;;;;;5047355;27;37966;-78
2021/11/27 02:51:51;;;;;;;8.83;5.07;;;4.80;99.90;;;;;;5051230;27;38225;-78
2021/11/27 02:54:18;;;;;;;11.87;6.20;;;4.70;99.90;;;;;;5027150;28;40223;-78
2021/11/27 02:56:45;;;;;;;7.27;5.00;;;4.70;99.90;;;;;;5047943;27;37764;-78
2021/11/27 02:59:12;;;;;;;8.73;6.27;;;4.60;99.90;;;;;;5057671;27;37267;-78
2021/11/27 03:01:40;;;;;;;8.30;5.43;;;4.50;99.90;;;;;;5041302;28;37820;-78
2021/11/27 03:04:07;;;;;;;5.20;4.67;;;4.50;99.90;;;;;;5029239;28;37903;-78
2021/11/27 03:06:34;;;;;;;7.97;4.70;;;4.40;99.90;;;;;;5050642;27;37272;-78
2021/11/27 03:09:03;;;;;;;6.90;4.73;;;4.50;99.90;;;;;;5028802;28;39895;-79
2021/11/27 03:11:29;;;;;;;7.87;3.80;;;4.50;99.90;;;;;;5047566;27;48431;-78
2021/11/27 03:13:55;;;;;;;7.60;3.50;;;4.50;99.90;;;;;;5026620;28;39248;-78
2021/11/27 03:16:30;;;;;;;7.53;4.80;;;4.50;99.90;;;;;;5027451;27;41008;-78
2021/11/27 03:18:56;;;;;;;7.80;4.63;;;4.50;99.90;;;;;;5025212;28;39034;-79
2021/11/27 03:21:22;;;;;;;8.87;4.73;;;4.50;99.90;;;;;;5033496;27;36706;-78
2021/11/27 03:23:49;;;;;;;8.47;5.23;;;4.50;99.90;;;;;;5018218;28;39626;-79
2021/11/27 03:26:15;;;;;;;9.13;4.53;;;4.60;99.90;;;;;;5016802;28;38786;-78
2021/11/27 03:28:44;;;;;;;9.40;4.17;;;4.60;99.90;;;;;;5010825;28;39065;-78
2021/11/27 03:31:10;;;;;;;9.03;4.23;;;4.60;99.90;;;;;;5011511;28;39011;-78
2021/11/27 03:33:36;;;;;;;7.77;4.07;;;4.60;99.90;;;;;;5008799;28;38860;-79
2021/11/27 03:36:03;;;;;;;4.63;3.07;;;4.50;99.90;;;;;;5013832;28;39584;-78
2021/11/27 03:38:29;;;;;;;6.27;4.40;;;4.50;99.90;;;;;;5011156;28;38754;-79
2021/11/27 03:40:55;;;;;;;8.57;4.10;;;4.50;99.90;;;;;;5007334;28;38619;-79
2021/11/27 03:43:22;;;;;;;8.47;3.93;;;4.50;99.90;;;;;;5009449;28;38511;-79
2021/11/27 03:45:48;;;;;;;7.43;3.33;;;4.50;99.90;;;;;;5011166;28;39225;-78
2021/11/27 03:48:16;;;;;;;3.70;3.00;;;4.50;99.90;;;;;;5007481;28;37074;-78
2021/11/27 03:50:49;;;;;;;8.80;2.93;;;4.50;99.90;;;;;;5020184;27;37095;-79
2021/11/27 03:53:21;;;;;;;7.93;3.85;;;4.50;99.90;;;;;;5028076;27;39571;-78
2021/11/27 03:55:48;;;;;;;6.07;3.42;;;4.60;99.90;;;;;;5027706;28;39597;-79
2021/11/27 03:58:15;;;;;;;10.17;4.40;;;4.60;99.90;;;;;;5026741;27;39074;-77
2021/11/27 04:00:42;;;;;;;10.40;5.10;;;4.70;99.90;;;;;;5025745;28;37607;-78
2021/11/27 04:03:11;;;;;;;8.03;4.30;;;4.60;99.90;;;;;;5023456;27;38557;-79
2021/11/27 04:05:44;;;;;;;14.17;5.83;;;4.60;99.90;;;;;;5015049;28;39588;-78
2021/11/27 04:08:11;;;;;;;12.03;7.03;;;4.60;99.90;;;;;;5008284;28;38165;-78
2021/11/27 04:10:37;;;;;;;21.37;7.57;;;4.60;99.90;;;;;;5005018;28;38605;-79
2021/11/27 04:13:03;;;;;;;10.97;7.10;;;4.60;99.90;;;;;;5005352;28;40178;-78
2021/11/27 04:15:30;;;;;;;18.40;8.50;;;4.60;99.90;;;;;;5013343;28;39425;-78
2021/11/27 04:17:56;;;;;;;17.33;8.23;;;4.60;99.90;;;;;;5011676;28;38068;-79
2021/11/27 04:20:22;;;;;;;20.03;10.80;;;4.60;99.90;;;;;;5007970;27;36023;-79
2021/11/27 04:22:48;;;;;;;21.97;10.33;;;4.60;99.90;;;;;;5005860;28;37291;-79
2021/11/27 04:25:15;;;;;;;19.57;11.77;;;4.60;99.90;;;;;;5011575;28;36830;-79
2021/11/27 04:27:42;;;;;;;20.00;12.00;;;4.60;99.90;;;;;;5009729;28;38260;-79
2021/11/27 04:30:11;;;;;;;21.20;12.17;;;4.60;99.90;;;;;;5028450;28;39079;-78
2021/11/27 04:32:38;;;;;;;22.90;12.17;;;4.60;99.90;;;;;;5029607;28;39699;-79
2021/11/27 04:35:05;;;;;;;24.53;13.40;;;4.70;99.90;;;;;;5033698;28;38928;-78
2021/11/27 04:37:31;;;;;;;26.20;15.07;;;4.60;99.90;;;;;;5043403;28;46874;-79
2021/11/27 04:39:57;;;;;;;26.23;14.33;;;4.60;99.90;;;;;;5028920;28;37369;-79
2021/11/27 04:42:23;;;;;;;24.57;13.77;;;4.50;99.90;;;;;;5022551;27;39263;-79
2021/11/27 04:44:49;;;;;;;28.07;16.23;;;4.50;99.90;;;;;;5024397;27;38775;-78
2021/11/27 04:47:15;;;;;;;29.53;16.13;;;4.40;99.90;;;;;;5022872;27;38509;-79
2021/11/27 04:49:42;;;;;;;35.33;16.90;;;4.40;99.90;;;;;;5027023;28;36297;-79
2021/11/27 04:52:08;;;;;;;23.33;14.00;;;4.30;99.90;;;;;;5021351;28;39494;-78
2021/11/27 04:54:35;;;;;;;28.50;14.57;;;4.20;99.90;;;;;;5028551;28;38800;-79
2021/11/27 04:57:02;;;;;;;32.50;16.53;;;4.20;99.90;;;;;;5025352;27;38293;-78
2021/11/27 04:59:28;;;;;;;25.60;14.60;;;4.20;99.90;;;;;;5004204;28;47290;-78
2021/11/27 05:01:54;;;;;;;25.03;16.03;;;4.10;99.90;;;;;;5004984;28;38840;-79
2021/11/27 05:04:21;;;;;;;23.70;13.63;;;4.10;99.90;;;;;;5026767;28;40445;-79
2021/11/27 05:06:47;;;;;;;33.63;17.40;;;4.00;99.90;;;;;;5024696;28;39176;-78
2021/11/27 05:09:13;;;;;;;31.00;16.47;;;4.00;99.90;;;;;;5028203;28;38910;-78
2021/11/27 05:11:39;;;;;;;31.37;16.90;;;3.90;99.90;;;;;;5027077;28;39251;-78
2021/11/27 05:14:05;;;;;;;38.90;18.17;;;4.00;99.90;;;;;;5020804;28;39565;-78
2021/11/27 05:16:32;;;;;;;41.27;19.57;;;3.90;99.90;;;;;;5025072;28;40784;-78
2021/11/27 05:18:58;;;;;;;30.20;16.87;;;4.00;99.90;;;;;;5046042;28;34964;-77
2021/11/27 05:21:24;;;;;;;42.07;20.47;;;4.00;99.90;;;;;;5027041;28;41535;-78
2021/11/27 05:23:51;;;;;;;45.67;22.70;;;4.00;99.90;;;;;;5027040;28;39371;-78
2021/11/27 05:26:17;;;;;;;40.97;22.27;;;4.10;99.90;;;;;;5026007;27;39233;-78
2021/11/27 05:28:44;;;;;;;40.03;20.80;;;4.10;99.90;;;;;;5030221;27;35447;-78
2021/11/27 05:31:13;;;;;;;47.83;23.07;;;4.10;99.90;;;;;;5034910;28;39377;-78
2021/11/27 05:36:13;;;;;;;;;;;4.00;99.90;;;;;;5029087;28;39580;-78
2021/11/27 05:38:39;;;;;;;37.77;18.93;;;3.90;99.90;;;;;;5030288;28;37170;-78
2021/11/27 05:41:06;;;;;;;35.73;18.63;;;3.80;99.90;;;;;;5023511;28;39815;-78
2021/11/27 05:43:33;;;;;;;58.20;22.60;;;3.70;99.90;;;;;;5033313;28;37932;-78
2021/11/27 05:46:00;;;;;;;54.57;23.70;;;3.60;99.90;;;;;;5027329;27;38636;-78
2021/11/27 05:48:26;;;;;;;43.37;20.93;;;3.60;99.90;;;;;;5027782;28;37388;-78
2021/11/27 05:50:52;;;;;;;33.93;18.30;;;3.60;99.90;;;;;;5024727;28;37624;-78
2021/11/27 05:53:19;;;;;;;36.17;19.57;;;3.60;99.90;;;;;;5023599;28;39569;-78
2021/11/27 05:55:47;;;;;;;52.67;24.13;;;3.60;99.90;;;;;;5019998;28;40021;-78
2021/11/27 05:58:14;;;;;;;44.53;21.80;;;3.50;99.90;;;;;;5010474;28;37496;-77
2021/11/27 06:00:40;;;;;;;39.87;21.10;;;3.50;99.90;;;;;;5013790;28;39539;-78
2021/11/27 06:03:06;;;;;;;36.60;21.17;;;3.50;99.90;;;;;;5003407;28;41879;-78
2021/11/27 06:05:33;;;;;;;38.27;19.20;;;3.40;99.90;;;;;;5010936;28;38446;-78
2021/11/27 06:07:59;;;;;;;41.27;19.20;;;3.40;99.90;;;;;;5025517;28;38627;-78
2021/11/27 06:10:25;;;;;;;44.67;20.93;;;3.30;99.90;;;;;;5026142;27;38824;-78
2021/11/27 06:12:52;;;;;;;39.57;20.07;;;3.30;99.90;;;;;;5030677;28;38937;-78
2021/11/27 06:15:18;;;;;;;34.93;19.57;;;3.40;99.90;;;;;;5033777;28;38632;-78
2021/11/27 06:17:45;;;;;;;36.53;18.17;;;3.30;99.90;;;;;;5032566;28;38046;-78
2021/11/27 06:20:11;;;;;;;41.20;19.90;;;3.30;99.90;;;;;;5051294;27;38281;-78
2021/11/27 06:22:37;;;;;;;32.17;18.43;;;3.40;99.90;;;;;;5053022;28;38417;-78
2021/11/27 06:25:05;;;;;;;33.33;18.87;;;3.30;99.90;;;;;;5034514;28;40020;-78
2021/11/27 06:27:31;;;;;;;55.93;22.97;;;3.40;99.90;;;;;;5052379;28;48832;-78
2021/11/27 06:29:57;;;;;;;37.70;20.67;;;3.30;99.90;;;;;;5051581;28;39563;-77
2021/11/27 06:32:23;;;;;;;40.03;20.67;;;3.30;99.90;;;;;;5030858;28;40393;-78
2021/11/27 06:34:51;;;;;;;35.47;19.67;;;3.30;99.90;;;;;;5047035;28;39596;-77
2021/11/27 06:37:19;;;;;;;28.87;17.63;;;3.20;99.90;;;;;;5051275;28;37148;-78
2021/11/27 06:39:45;;;;;;;58.33;24.93;;;3.10;99.90;;;;;;5051798;28;39378;-78
2021/11/27 06:42:11;;;;;;;43.83;22.43;;;3.10;99.90;;;;;;5051674;27;38781;-78
2021/11/27 06:44:40;;;;;;;58.43;25.03;;;3.10;99.90;;;;;;5037644;28;39435;-78
2021/11/27 06:47:07;;;;;;;35.87;20.60;;;3.10;99.90;;;;;;5042873;28;39628;-78
2021/11/27 06:49:33;;;;;;;43.80;21.17;;;3.10;99.90;;;;;;5022924;28;40250;-78
2021/11/27 06:51:59;;;;;;;38.00;20.33;;;3.10;99.90;;;;;;5043897;28;38827;-78
2021/11/27 06:54:25;;;;;;;40.60;22.27;;;3.20;99.90;;;;;;5033028;28;38300;-77
2021/11/27 06:56:51;;;;;;;51.07;24.77;;;3.20;99.90;;;;;;5016696;28;38744;-78
2021/11/27 06:59:17;;;;;;;42.20;20.13;;;3.20;99.90;;;;;;5022229;28;39321;-78
2021/11/27 07:01:43;;;;;;;33.90;19.63;;;3.20;99.90;;;;;;5032709;28;39602;-78
2021/11/27 07:04:10;;;;;;;37.87;20.57;;;3.20;99.90;;;;;;5034203;28;38848;-78
2021/11/27 07:06:36;;;;;;;42.27;22.33;;;3.10;99.90;;;;;;5052887;28;38065;-78
2021/11/27 07:09:02;;;;;;;50.60;24.43;;;3.10;99.90;;;;;;5053544;27;37403;-78
2021/11/27 07:11:28;;;;;;;56.13;27.10;;;3.20;99.90;;;;;;5029253;28;40889;-78
2021/11/27 07:13:54;;;;;;;42.83;20.67;;;3.20;99.90;;;;;;5025271;28;39392;-78
2021/11/27 07:16:20;;;;;;;37.40;20.63;;;3.30;99.90;;;;;;5025430;28;38721;-78
2021/11/27 07:18:46;;;;;;;59.67;27.33;;;3.30;99.90;;;;;;5029283;28;37308;-78
2021/11/27 07:21:12;;;;;;;40.93;22.17;;;3.30;99.90;;;;;;5031941;28;38754;-80
2021/11/27 07:23:38;;;;;;;43.73;21.47;;;3.30;99.90;;;;;;5037698;28;39277;-81
2021/11/27 07:26:04;;;;;;;42.43;21.97;;;3.40;99.90;;;;;;5036252;28;39167;-81
2021/11/27 07:28:30;;;;;;;49.53;22.30;;;3.50;99.90;;;;;;5054247;27;39921;-80
2021/11/27 07:30:57;;;;;;;45.67;23.53;;;3.50;99.90;;;;;;5040504;28;39180;-80
2021/11/27 07:33:23;;;;;;;68.83;29.23;;;3.50;99.90;;;;;;5034328;27;39424;-81
2021/11/27 07:35:50;;;;;;;62.70;27.13;;;3.50;99.90;;;;;;5032967;28;39201;-81
2021/11/27 07:38:16;;;;;;;39.33;19.57;;;3.60;99.90;;;;;;5034678;28;39239;-80
2021/11/27 07:40:42;;;;;;;51.23;25.47;;;3.60;99.90;;;;;;5038099;27;38776;-80
2021/11/27 07:43:08;;;;;;;67.77;28.97;;;3.70;99.90;;;;;;5035889;28;38727;-80
2021/11/27 07:45:36;;;;;;;64.93;27.93;;;3.70;99.90;;;;;;5038466;28;38297;-80
2021/11/27 07:48:02;;;;;;;76.20;31.30;;;3.80;99.90;;;;;;5036738;27;39169;-79
2021/11/27 07:50:29;;;;;;;64.27;25.97;;;3.90;99.90;;;;;;5040190;27;39636;-81
2021/11/27 07:52:56;;;;;;;72.57;30.77;;;4.00;99.90;;;;;;5037518;28;38226;-80
2021/11/27 07:55:22;;;;;;;61.93;28.33;;;4.10;99.90;;;;;;5036394;27;37090;-81
2021/11/27 07:57:48;;;;;;;61.40;29.43;;;4.20;99.90;;;;;;5033161;28;40993;-80
2021/11/27 08:00:14;;;;;;;71.10;33.00;;;4.20;99.90;;;;;;5030429;28;40144;-80
2021/11/27 08:02:41;;;;;;;69.80;29.83;;;4.30;99.90;;;;;;5034438;28;38383;-80
2021/11/27 08:05:07;;;;;;;65.73;27.60;;;4.40;99.90;;;;;;5031823;28;39051;-80
2021/11/27 08:07:35;;;;;;;94.37;35.00;;;4.50;99.90;;;;;;5047818;28;38267;-80
2021/11/27 08:10:05;;;;;;;63.47;27.17;;;4.50;99.90;;;;;;5033992;28;39380;-78
2021/11/27 08:12:32;;;;;;;71.77;28.10;;;4.60;99.90;;;;;;5035044;28;48874;-82
2021/11/27 08:14:58;;;;;;;82.73;33.93;;;4.70;99.90;;;;;;5047763;28;37634;-81
2021/11/27 08:17:24;;;;;;;67.67;28.67;;;4.70;99.90;;;;;;5057619;28;38811;-81
2021/11/27 08:19:50;;;;;;;74.30;30.17;;;4.80;99.90;;;;;;5062124;27;39920;-82
2021/11/27 08:22:17;;;;;;;82.83;32.63;;;4.80;99.90;;;;;;5047659;28;39489;-81
2021/11/27 08:24:43;;;;;;;82.93;33.67;;;4.80;99.90;;;;;;5061192;27;38384;-81
2021/11/27 08:27:09;;;;;;;79.33;34.67;;;4.90;99.90;;;;;;5040984;28;39221;-81
2021/11/27 08:29:35;;;;;;;78.93;33.80;;;4.90;99.90;;;;;;5062513;27;39810;-81
2021/11/27 08:32:01;;;;;;;69.80;29.20;;;4.90;99.90;;;;;;5064533;28;38682;-82
2021/11/27 08:34:27;;;;;;;79.80;31.47;;;4.90;99.90;;;;;;5067254;28;49206;-81
2021/11/27 08:36:53;;;;;;;81.90;32.57;;;4.90;99.90;;;;;;5060478;27;39475;-81
2021/11/27 08:39:20;;;;;;;74.13;30.53;;;5.00;99.90;;;;;;5039320;28;39566;-81
2021/11/27 08:41:47;;;;;;;66.67;28.40;;;5.00;99.90;;;;;;5042124;28;38135;-81
2021/11/27 08:44:13;;;;;;;66.60;27.77;;;5.00;99.90;;;;;;5037125;28;37301;-81
2021/11/27 08:46:39;;;;;;;77.27;29.37;;;5.00;99.90;;;;;;5041548;28;37508;-81
2021/11/27 08:49:05;;;;;;;67.80;28.63;;;5.00;99.90;;;;;;5053477;28;38679;-81
2021/11/27 08:51:32;;;;;;;61.27;25.70;;;5.10;99.90;;;;;;5051946;27;37375;-81
2021/11/27 08:53:58;;;;;;;57.20;25.63;;;5.10;99.90;;;;;;5063192;27;38317;-81
2021/11/27 08:56:24;;;;;;;64.50;25.50;;;5.10;99.90;;;;;;5041747;28;38850;-81
2021/11/27 08:58:59;;;;;;;69.70;26.67;;;5.10;99.90;;;;;;5045783;27;20403;-73
2021/11/27 09:01:25;;;;;;;56.97;24.23;;;5.10;99.90;;;;;;5037021;28;40448;-73
2021/11/27 09:03:51;;;;;;;66.23;24.87;;;5.10;99.90;;;;;;5033041;28;37614;-73
2021/11/27 09:06:18;;;;;;;66.73;23.37;;;5.10;99.90;;;;;;5043973;28;38508;-73
2021/11/27 09:08:44;;;;;;;66.13;26.07;;;5.20;99.90;;;;;;5035476;28;39252;-73
2021/11/27 09:11:14;;;;;;;74.33;27.47;;;5.20;99.90;;;;;;5029581;28;38316;-73
2021/11/27 09:13:40;;;;;;;61.53;23.30;;;5.30;99.90;;;;;;5037434;28;37139;-72
2021/11/27 09:16:07;;;;;;;53.87;22.73;;;5.30;99.90;;;;;;5034686;28;39486;-73
2021/11/27 09:18:34;;;;;;;60.37;22.00;;;5.40;99.90;;;;;;5035873;28;38213;-73
2021/11/27 09:21:01;;;;;;;51.70;20.83;;;5.40;99.90;;;;;;5030572;28;37367;-73
2021/11/27 09:23:27;;;;;;;59.30;22.43;;;5.30;99.90;;;;;;5057768;28;48253;-73
2021/11/27 09:25:54;;;;;;;56.23;20.43;;;5.30;99.90;;;;;;5050612;28;39900;-73
2021/11/27 09:28:20;;;;;;;55.03;20.43;;;5.40;99.90;;;;;;5035780;28;37922;-73
2021/11/27 09:30:46;;;;;;;60.33;22.40;;;5.30;99.90;;;;;;5028570;28;36412;-74
2021/11/27 09:33:12;;;;;;;68.67;24.07;;;5.30;99.90;;;;;;5028228;28;37140;-73
2021/11/27 09:35:38;;;;;;;88.90;26.10;;;5.30;99.90;;;;;;5024807;28;39488;-73
2021/11/27 09:38:05;;;;;;;52.00;21.13;;;5.40;99.90;;;;;;5024995;28;38309;-74
2021/11/27 09:40:37;;;;;;;59.60;20.53;;;5.40;99.90;;;;;;5028513;28;38425;-74
2021/11/27 09:43:04;;;;;;;66.60;25.50;;;5.40;99.90;;;;;;5056729;28;37501;-74
2021/11/27 09:45:31;;;;;;;49.63;18.83;;;5.40;99.90;;;;;;5029450;28;39635;-73
2021/11/27 09:48:00;;;;;;;72.67;24.37;;;5.40;99.90;;;;;;5033566;28;39273;-74
2021/11/27 09:50:26;;;;;;;61.87;20.97;;;5.40;99.90;;;;;;5025825;28;38892;-74
2021/11/27 09:52:53;;;;;;;57.37;21.53;;;5.40;99.90;;;;;;5031363;28;38142;-73
2021/11/27 09:55:19;;;;;;;41.93;16.83;;;5.40;99.90;;;;;;5025027;28;39573;-73
2021/11/27 09:57:47;;;;;;;48.53;18.40;;;5.40;99.90;;;;;;5031396;28;38119;-74
2021/11/27 10:00:18;;;;;;;40.63;17.17;;;5.40;99.90;;;;;;5034222;28;38338;-74
2021/11/27 10:02:47;;;;;;;49.17;17.00;;;5.50;99.90;;;;;;5026971;28;36159;-73
2021/11/27 10:05:14;;;;;;;46.70;18.87;;;5.50;99.90;;;;;;5039316;28;38598;-74
2021/11/27 10:07:42;;;;;;;50.73;17.57;;;5.50;99.90;;;;;;5038210;28;38063;-73
2021/11/27 10:10:11;;;;;;;44.47;16.43;;;5.50;99.90;;;;;;5022622;28;38952;-73
2021/11/27 10:12:42;;;;;;;51.47;17.73;;;5.60;99.90;;;;;;5024052;28;36543;-73
2021/11/27 10:15:10;;;;;;;45.67;17.50;;;5.60;99.90;;;;;;5021704;28;38318;-74
2021/11/27 10:17:36;;;;;;;47.13;16.43;;;5.60;99.90;;;;;;5021453;28;39287;-73
2021/11/27 10:20:07;;;;;;;36.03;14.27;;;5.60;99.90;;;;;;5032945;28;37221;-73
2021/11/27 10:22:42;;;;;;;44.57;18.53;;;5.60;99.90;;;;;;5037711;28;47227;-73
2021/11/27 10:25:29;;;;;;;36.43;16.50;;;5.70;99.90;;;;;;5023898;28;37840;-73
2021/11/27 10:28:12;;;;;;;46.20;14.40;;;5.70;99.90;;;;;;5020787;28;37657;-73
2021/11/27 10:30:58;;;;;;;52.28;18.38;;;5.80;99.90;;;;;;5015766;28;48174;-73
2021/11/27 10:33:25;;;;;;;39.63;15.23;;;5.80;99.90;;;;;;5014569;28;37355;-72
2021/11/27 10:36:01;;;;;;;51.20;16.23;;;5.90;99.90;;;;;;5021529;28;40175;-73
2021/11/27 10:39:02;;;;;;;41.53;15.03;;;5.90;99.90;;;;;;5026992;28;47164;-71
2021/11/27 10:41:35;;;;;;;47.97;15.60;;;5.90;99.90;;;;;;5021790;28;47022;-73
2021/11/27 10:44:02;;;;;;;47.95;16.13;;;6.00;99.90;;;;;;5012338;28;38045;-73
2021/11/27 10:46:31;;;;;;;40.23;13.13;;;6.10;99.90;;;;;;5033402;28;49071;-73
2021/11/27 10:48:58;;;;;;;41.03;14.63;;;6.10;99.90;;;;;;5021708;28;38416;-73
2021/11/27 10:51:24;;;;;;;36.93;13.27;;;6.10;99.90;;;;;;5014032;28;38611;-73
2021/11/27 10:53:59;;;;;;;38.33;14.30;;;6.20;99.90;;;;;;5022365;28;38071;-73
2021/11/27 10:56:48;;;;;;;37.73;13.67;;;6.30;99.90;;;;;;5019017;28;42720;-73
2021/11/27 10:59:17;;;;;;;38.77;14.70;;;6.50;99.90;;;;;;5024265;28;38296;-73
2021/11/27 11:02:08;;;;;;;34.50;11.77;;;6.60;99.90;;;;;;5017221;28;38759;-73
2021/11/27 11:04:34;;;;;;;36.17;11.27;;;6.60;99.90;;;;;;5042923;28;49534;-72
2021/11/27 11:07:21;;;;;;;34.07;10.43;;;6.70;99.90;;;;;;5036381;28;38801;-71
2021/11/27 11:10:20;;;;;;;36.43;10.87;;;6.70;99.90;;;;;;5019766;28;48332;-73
2021/11/27 11:12:57;;;;;;;36.83;11.10;;;6.70;99.90;;;;;;4992834;28;48978;-73
2021/11/27 11:15:44;;;;;;;37.40;9.50;;;6.60;99.90;;;;;;5025055;28;39217;-73
2021/11/27 11:18:25;;;;;;;36.60;9.03;;;6.60;99.90;;;;;;5017922;28;39515;-74
2021/11/27 11:20:53;;;;;;;46.10;10.93;;;6.50;99.90;;;;;;5023762;28;38846;-73
2021/11/27 11:23:21;;;;;;;37.30;9.83;;;6.50;99.90;;;;;;5015938;28;37784;-73
2021/11/27 11:26:14;;;;;;;40.60;10.87;;;6.40;99.90;;;;;;5014766;28;38518;-73
2021/11/27 11:28:42;;;;;;;35.57;9.53;;;6.40;99.90;;;;;;5044562;28;47233;-73
2021/11/27 11:31:12;;;;;;;32.30;8.80;;;6.40;99.90;;;;;;5016201;28;38241;-73
2021/11/27 11:33:41;;;;;;;34.70;9.47;;;6.40;99.90;;;;;;5022772;28;37126;-73
2021/11/27 11:36:11;;;;;;;21.53;8.10;;;6.30;99.90;;;;;;5019822;28;38821;-73
2021/11/27 11:38:41;;;;;;;34.93;9.70;;;6.40;99.90;;;;;;5023399;28;39639;-73
2021/11/27 11:41:08;;;;;;;24.47;8.73;;;6.40;99.90;;;;;;5015524;28;38367;-74
2021/11/27 11:43:34;;;;;;;23.50;7.60;;;6.30;99.90;;;;;;5021133;28;39417;-73
2021/11/27 11:46:01;;;;;;;24.73;7.37;;;6.30;99.90;;;;;;5013818;28;37905;-73
2021/11/27 11:48:29;;;;;;;25.03;7.93;;;6.30;99.90;;;;;;5018001;28;46921;-73
2021/11/27 11:51:00;;;;;;;23.13;7.30;;;6.30;99.90;;;;;;5021486;28;39101;-73
2021/11/27 11:53:46;;;;;;;22.80;7.83;;;6.30;99.90;;;;;;5024529;28;39244;-74
2021/11/27 11:56:13;;;;;;;27.40;7.60;;;6.30;99.90;;;;;;5039071;28;38310;-73
2021/11/27 11:58:41;;;;;;;20.47;7.90;;;6.30;99.90;;;;;;5034737;28;38898;-74
2021/11/27 12:01:17;;;;;;;18.50;5.17;;;6.20;99.90;;;;;;5036538;28;39245;-74
2021/11/27 12:03:47;;;;;;;15.00;3.87;;;5.90;99.90;;;;;;5022089;28;37512;-73
2021/11/27 12:06:20;;;;;;;19.60;4.73;;;5.70;99.90;;;;;;5021744;28;37266;-73
2021/11/27 12:08:51;;;;;;;19.53;4.07;;;5.60;99.90;;;;;;5014305;28;39872;-74
2021/11/27 12:11:42;;;;;;;17.03;3.60;;;5.60;99.90;;;;;;5031291;28;38615;-73
2021/11/27 12:14:27;;;;;;;21.23;3.43;;;5.60;99.90;;;;;;5020575;28;39373;-73
2021/11/27 12:17:14;;;;;;;18.00;4.03;;;5.70;99.90;;;;;;5017866;28;37969;-73
2021/11/27 12:19:50;;;;;;;24.93;5.87;;;5.70;99.90;;;;;;5012644;28;46360;-73
2021/11/27 12:22:31;;;;;;;22.40;5.17;;;5.70;99.90;;;;;;5032242;28;40007;-73
2021/11/27 12:25:16;;;;;;;28.23;7.47;;;5.80;99.90;;;;;;5016800;28;37368;-73
2021/11/27 12:28:08;;;;;;;30.93;8.70;;;5.70;99.90;;;;;;5033195;28;48614;-73
2021/11/27 12:30:41;;;;;;;35.05;8.20;;;5.70;99.90;;;;;;5020100;28;49798;-73
2021/11/27 12:33:07;;;;;;;28.42;7.35;;;5.70;99.90;;;;;;5021784;28;37644;-73
2021/11/27 12:35:33;;;;;;;28.83;7.63;;;5.80;99.90;;;;;;5018094;28;36669;-73
2021/11/27 12:38:08;;;;;;;30.77;7.07;;;5.80;99.90;;;;;;5023171;28;37156;-73
2021/11/27 12:40:45;;;;;;;22.43;7.70;;;5.70;99.90;;;;;;5019973;28;47160;-73
2021/11/27 12:43:17;;;;;;;20.43;8.67;;;5.70;99.90;;;;;;5039690;28;39165;-73
2021/11/27 12:45:47;;;;;;;31.67;9.53;;;5.80;99.90;;;;;;5038113;28;38563;-74
2021/11/27 12:48:31;;;;;;;30.17;8.17;;;5.80;99.90;;;;;;5030727;28;37803;-74
2021/11/27 12:51:15;;;;;;;22.83;6.67;;;5.70;99.90;;;;;;5023373;28;38731;-73
2021/11/27 12:54:03;;;;;;;24.83;6.27;;;5.70;99.90;;;;;;5012124;28;47241;-74
2021/11/27 12:56:51;;;;;;;25.03;5.80;;;5.60;99.90;;;;;;5018059;28;48844;-73